Time,TemperatureF,DewpointF,PressureIn,WindDirection,WindDirectionDegrees,WindSpeedMPH,WindSpeedGustMPH,Humidity,HourlyPrecipIn,Conditions,Clouds,dailyrainin,SoftwareType,DateUTC
2013-02-07 00:09:00,25.2,12.0,30.04,West,262,9.0,12.0,57,0.00,,,0.00,weatherlink.com 1.10,2013-02-07 07:09:00,
2013-02-07 00:24:00,24.9,11.0,30.03,WSW,249,2.0,17.0,56,0.00,,,0.00,weatherlink.com 1.10,2013-02-07 07:24:00,
2013-02-07 00:39:00,24.6,12.0,30.03,WSW,249,4.0,12.0,58,0.00,,,0.00,weatherlink.com 1.10,2013-02-07 07:39:00,
2013-02-07 00:54:00,24.0,11.0,30.03,WNW,283,0.0,12.0,58,0.00,,,0.00,weatherlink.com 1.10,2013-02-07 07:54:00,
2013-02-07 01:09:00,23.9,11.0,30.03,West,281,1.0,14.0,58,0.00,,,0.00,weatherlink.com 1.10,2013-02-07 08:09:00,
2013-02-07 01:25:00,23.7,9.0,30.03,SE,146,1.0,9.0,53,0.00,,,0.00,weatherlink.com 1.10,2013-02-07 08:25:00,
2013-02-07 01:39:00,22.7,9.0,30.06,WNW,294,3.0,6.0,57,0.00,,,0.00,weatherlink.com 1.10,2013-02-07 08:39:00,
2013-02-07 01:54:00,24.8,8.0,30.05,WNW,293,13.0,13.0,50,0.00,,,0.00,weatherlink.com 1.10,2013-02-07 08:54:00,
2013-02-07 02:09:00,25.1,8.0,30.05,SSW,207,0.0,19.0,48,0.00,,,0.00,weatherlink.com 1.10,2013-02-07 09:09:00,
2013-02-07 02:24:00,24.4,9.0,30.05,SW,236,2.0,11.0,51,0.00,,,0.00,weatherlink.com 1.10,2013-02-07 09:24:00,
2013-02-07 02:39:00,24.2,8.0,30.04,West,280,12.0,17.0,51,0.00,,,0.00,weatherlink.com 1.10,2013-02-07 09:39:00,
2013-02-07 02:54:00,24.3,7.0,30.04,WNW,295,11.0,15.0,48,0.00,,,0.00,weatherlink.com 1.10,2013-02-07 09:54:00,
2013-02-07 03:09:00,22.5,8.0,30.05,East,83,2.0,7.0,54,0.00,,,0.00,weatherlink.com 1.10,2013-02-07 10:09:00,
2013-02-07 03:24:00,20.7,13.0,30.05,SE,141,1.0,2.0,73,0.00,,,0.00,weatherlink.com 1.10,2013-02-07 10:24:00,
2013-02-07 03:39:00,19.6,15.0,30.05,NNE,26,2.0,6.0,81,0.00,,,0.00,weatherlink.com 1.10,2013-02-07 10:39:00,
2013-02-07 03:54:00,19.2,14.0,30.05,South,187,0.0,5.0,80,0.00,,,0.00,weatherlink.com 1.10,2013-02-07 10:54:00,
2013-02-07 04:09:00,21.3,10.0,30.05,West,280,4.0,11.0,61,0.00,,,0.00,weatherlink.com 1.10,2013-02-07 11:09:00,
2013-02-07 04:25:00,22.2,9.0,30.04,WNW,302,5.0,9.0,57,0.00,,,0.00,weatherlink.com 1.10,2013-02-07 11:25:00,
2013-02-07 04:40:00,22.1,9.0,30.05,SSE,149,0.0,9.0,58,0.00,,,0.00,weatherlink.com 1.10,2013-02-07 11:40:00,
2013-02-07 04:55:00,20.8,8.0,30.05,East,91,0.0,2.0,59,0.00,,,0.00,weatherlink.com 1.10,2013-02-07 11:55:00,
2013-02-07 05:10:00,19.3,8.0,30.06,West,271,0.0,2.0,62,0.00,,,0.00,weatherlink.com 1.10,2013-02-07 12:10:00,
2013-02-07 05:25:00,17.7,8.0,30.07,WNW,283,0.0,4.0,65,0.00,,,0.00,weatherlink.com 1.10,2013-02-07 12:25:00,
2013-02-07 05:40:00,16.3,7.0,30.08,NW,309,0.0,0.0,68,0.00,,,0.00,weatherlink.com 1.10,2013-02-07 12:40:00,
2013-02-07 05:55:00,14.8,7.0,30.08,NW,316,0.0,4.0,70,0.00,,,0.00,weatherlink.com 1.10,2013-02-07 12:55:00,
2013-02-07 06:10:00,13.7,6.0,30.09,West,271,1.0,2.0,72,0.00,,,0.00,weatherlink.com 1.10,2013-02-07 13:10:00,
2013-02-07 06:25:00,12.9,6.0,30.10,West,276,0.0,2.0,73,0.00,,,0.00,weatherlink.com 1.10,2013-02-07 13:25:00,
2013-02-07 06:40:00,12.4,5.0,30.11,West,266,0.0,2.0,73,0.00,,,0.00,weatherlink.com 1.10,2013-02-07 13:40:00,
2013-02-07 06:55:00,11.9,5.0,30.12,West,280,0.0,0.0,72,0.00,,,0.00,weatherlink.com 1.10,2013-02-07 13:55:00,
2013-02-07 07:10:00,12.0,4.0,30.12,West,281,0.0,2.0,71,0.00,,,0.00,weatherlink.com 1.10,2013-02-07 14:10:00,
2013-02-07 07:25:00,12.1,3.0,30.13,NE,41,0.0,3.0,68,0.00,,,0.00,weatherlink.com 1.10,2013-02-07 14:25:00,
2013-02-07 07:41:00,17.8,3.0,30.13,NW,316,0.0,5.0,52,0.00,,,0.00,weatherlink.com 1.10,2013-02-07 14:41:00,
2013-02-07 07:55:00,20.2,2.0,30.14,WNW,302,0.0,3.0,45,0.00,,,0.00,weatherlink.com 1.10,2013-02-07 14:55:00,
2013-02-07 08:10:00,21.8,2.0,30.14,WNW,297,1.0,5.0,42,0.00,,,0.00,weatherlink.com 1.10,2013-02-07 15:10:00,
2013-02-07 08:25:00,23.8,3.0,30.15,NNW,338,1.0,4.0,40,0.00,,,0.00,weatherlink.com 1.10,2013-02-07 15:25:00,
2013-02-07 08:40:00,24.9,3.0,30.15,SW,228,2.0,6.0,39,0.00,,,0.00,weatherlink.com 1.10,2013-02-07 15:40:00,
2013-02-07 08:55:00,25.3,3.0,30.15,WNW,285,3.0,6.0,39,0.00,,,0.00,weatherlink.com 1.10,2013-02-07 15:55:00,
2013-02-07 09:10:00,26.8,2.0,30.16,NW,304,1.0,5.0,34,0.00,,,0.00,weatherlink.com 1.10,2013-02-07 16:10:00,
2013-02-07 09:25:00,28.1,2.0,30.16,WNW,297,0.0,4.0,32,0.00,,,0.00,weatherlink.com 1.10,2013-02-07 16:25:00,
2013-02-07 09:40:00,29.0,2.0,30.15,WNW,301,2.0,5.0,32,0.00,,,0.00,weatherlink.com 1.10,2013-02-07 16:40:00,
2013-02-07 09:56:00,29.8,2.0,30.16,NW,323,0.0,5.0,30,0.00,,,0.00,weatherlink.com 1.10,2013-02-07 16:56:00,
2013-02-07 10:11:00,30.6,2.0,30.16,WSW,257,2.0,6.0,29,0.00,,,0.00,weatherlink.com 1.10,2013-02-07 17:11:00,
2013-02-07 10:26:00,31.2,1.0,30.17,NW,311,3.0,7.0,28,0.00,,,0.00,weatherlink.com 1.10,2013-02-07 17:26:00,
2013-02-07 10:41:00,32.1,0.0,30.18,NW,309,4.0,6.0,25,0.00,,,0.00,weatherlink.com 1.10,2013-02-07 17:41:00,
2013-02-07 10:56:00,33.0,1.0,30.18,SW,225,1.0,6.0,26,0.00,,,0.00,weatherlink.com 1.10,2013-02-07 17:56:00,
2013-02-07 11:11:00,33.3,2.0,30.18,NNW,345,1.0,5.0,26,0.00,,,0.00,weatherlink.com 1.10,2013-02-07 18:11:00,
2013-02-07 11:26:00,33.7,1.0,30.17,WNW,285,4.0,6.0,25,0.00,,,0.00,weatherlink.com 1.10,2013-02-07 18:26:00,
2013-02-07 11:41:00,33.1,4.0,30.17,WNW,300,2.0,9.0,29,0.00,,,0.00,weatherlink.com 1.10,2013-02-07 18:41:00,
2013-02-07 11:56:00,33.5,3.0,30.17,WNW,302,5.0,7.0,27,0.00,,,0.00,weatherlink.com 1.10,2013-02-07 18:56:00,
2013-02-07 12:11:00,34.0,2.0,30.16,West,278,4.0,7.0,25,0.00,,,0.00,weatherlink.com 1.10,2013-02-07 19:11:00,
2013-02-07 12:26:00,34.3,-2.0,30.15,WSW,252,2.0,7.0,21,0.00,,,0.00,weatherlink.com 1.10,2013-02-07 19:26:00,
2013-02-07 12:41:00,33.6,-8.0,30.15,WNW,300,4.0,9.0,16,0.00,,,0.00,weatherlink.com 1.10,2013-02-07 19:41:00,
2013-02-07 12:56:00,33.6,-7.0,30.15,SSW,208,1.0,11.0,17,0.00,,,0.00,weatherlink.com 1.10,2013-02-07 19:56:00,
2013-02-07 13:11:00,33.6,-5.0,30.15,WSW,247,0.0,8.0,19,0.00,,,0.00,weatherlink.com 1.10,2013-02-07 20:11:00,
2013-02-07 13:26:00,34.1,-1.0,30.14,West,280,1.0,14.0,22,0.00,,,0.00,weatherlink.com 1.10,2013-02-07 20:26:00,
2013-02-07 13:42:00,34.0,0.0,30.14,NNW,348,7.0,12.0,23,0.00,,,0.00,weatherlink.com 1.10,2013-02-07 20:42:00,
2013-02-07 13:57:00,34.7,-2.0,30.13,NW,304,3.0,16.0,21,0.00,,,0.00,weatherlink.com 1.10,2013-02-07 20:57:00,
2013-02-07 14:12:00,34.4,1.0,30.13,WNW,283,1.0,8.0,24,0.00,,,0.00,weatherlink.com 1.10,2013-02-07 21:12:00,
2013-02-07 14:27:00,34.5,0.0,30.12,West,271,3.0,7.0,23,0.00,,,0.00,weatherlink.com 1.10,2013-02-07 21:27:00,
2013-02-07 14:42:00,34.0,-1.0,30.13,West,271,3.0,11.0,22,0.00,,,0.00,weatherlink.com 1.10,2013-02-07 21:42:00,
2013-02-07 14:57:00,34.3,0.0,30.13,West,266,4.0,8.0,23,0.00,,,0.00,weatherlink.com 1.10,2013-02-07 21:57:00,
2013-02-07 15:12:00,35.6,3.0,30.13,SW,221,0.0,15.0,25,0.00,,,0.00,weatherlink.com 1.10,2013-02-07 22:12:00,
2013-02-07 15:27:00,35.5,3.0,30.12,WNW,287,5.0,10.0,25,0.00,,,0.00,weatherlink.com 1.10,2013-02-07 22:27:00,
2013-02-07 15:42:00,35.2,4.0,30.12,West,273,0.0,8.0,27,0.00,,,0.00,weatherlink.com 1.10,2013-02-07 22:42:00,
2013-02-07 15:57:00,34.4,3.0,30.12,WSW,257,0.0,3.0,27,0.00,,,0.00,weatherlink.com 1.10,2013-02-07 22:57:00,
2013-02-07 16:12:00,33.3,3.0,30.12,SW,217,0.0,1.0,28,0.00,,,0.00,weatherlink.com 1.10,2013-02-07 23:12:00,
2013-02-07 16:27:00,32.8,4.0,30.12,SW,229,0.0,4.0,30,0.00,,,0.00,weatherlink.com 1.10,2013-02-07 23:27:00,
2013-02-07 16:42:00,31.5,5.0,30.13,West,274,0.0,0.0,32,0.00,,,0.00,weatherlink.com 1.10,2013-02-07 23:42:00,
2013-02-07 16:58:00,30.2,3.0,30.13,West,264,0.0,0.0,31,0.00,,,0.00,weatherlink.com 1.10,2013-02-07 23:58:00,
2013-02-07 17:13:00,28.5,4.0,30.14,West,264,0.0,0.0,35,0.00,,,0.00,weatherlink.com 1.10,2013-02-08 00:13:00,
2013-02-07 17:28:00,26.7,4.0,30.14,West,264,0.0,0.0,37,0.00,,,0.00,weatherlink.com 1.10,2013-02-08 00:28:00,
2013-02-07 17:43:00,25.7,4.0,30.14,West,264,0.0,0.0,39,0.00,,,0.00,weatherlink.com 1.10,2013-02-08 00:43:00,
2013-02-07 17:58:00,24.9,5.0,30.15,West,281,0.0,0.0,43,0.00,,,0.00,weatherlink.com 1.10,2013-02-08 00:58:00,
2013-02-07 18:13:00,23.7,5.0,30.15,West,281,0.0,0.0,44,0.00,,,0.00,weatherlink.com 1.10,2013-02-08 01:13:00,
2013-02-07 18:28:00,23.5,5.0,30.15,West,267,0.0,0.0,46,0.00,,,0.00,weatherlink.com 1.10,2013-02-08 01:28:00,
2013-02-07 18:43:00,23.2,6.0,30.15,West,269,0.0,1.0,47,0.00,,,0.00,weatherlink.com 1.10,2013-02-08 01:43:00,
2013-02-07 18:58:00,22.5,5.0,30.14,West,278,0.0,3.0,47,0.00,,,0.00,weatherlink.com 1.10,2013-02-08 01:58:00,
2013-02-07 19:13:00,22.0,4.0,30.15,WNW,282,0.0,2.0,46,0.00,,,0.00,weatherlink.com 1.10,2013-02-08 02:13:00,
2013-02-07 19:28:00,22.1,4.0,30.15,WNW,283,0.0,0.0,46,0.00,,,0.00,weatherlink.com 1.10,2013-02-08 02:28:00,
2013-02-07 19:43:00,21.2,2.0,30.15,WNW,283,0.0,0.0,44,0.00,,,0.00,weatherlink.com 1.10,2013-02-08 02:43:00,
2013-02-07 19:58:00,20.2,2.0,30.15,WNW,282,0.0,1.0,46,0.00,,,0.00,weatherlink.com 1.10,2013-02-08 02:58:00,
2013-02-07 20:13:00,19.4,3.0,30.15,WNW,283,1.0,2.0,49,0.00,,,0.00,weatherlink.com 1.10,2013-02-08 03:13:00,
2013-02-07 20:29:00,19.3,2.0,30.14,West,281,1.0,3.0,46,0.00,,,0.00,weatherlink.com 1.10,2013-02-08 03:29:00,
2013-02-07 20:44:00,18.5,2.0,30.14,West,276,0.0,3.0,49,0.00,,,0.00,weatherlink.com 1.10,2013-02-08 03:44:00,
2013-02-07 20:59:00,19.0,1.0,30.14,WNW,289,0.0,4.0,46,0.00,,,0.00,weatherlink.com 1.10,2013-02-08 03:59:00,
2013-02-07 21:14:00,19.6,1.0,30.15,SSE,163,2.0,3.0,44,0.00,,,0.00,weatherlink.com 1.10,2013-02-08 04:14:00,
2013-02-07 21:29:00,22.6,1.0,30.15,NW,315,0.0,4.0,39,0.00,,,0.00,weatherlink.com 1.10,2013-02-08 04:29:00,
2013-02-07 21:44:00,20.3,-1.0,30.15,West,264,0.0,2.0,40,0.00,,,0.00,weatherlink.com 1.10,2013-02-08 04:44:00,
2013-02-07 21:59:00,19.2,-1.0,30.15,West,267,0.0,1.0,42,0.00,,,0.00,weatherlink.com 1.10,2013-02-08 04:59:00,
2013-02-07 22:14:00,18.1,-2.0,30.15,West,267,0.0,1.0,42,0.00,,,0.00,weatherlink.com 1.10,2013-02-08 05:14:00,
2013-02-07 22:29:00,17.3,-1.0,30.15,West,273,0.0,0.0,44,0.00,,,0.00,weatherlink.com 1.10,2013-02-08 05:29:00,
2013-02-07 22:44:00,16.0,-1.0,30.14,West,273,0.0,1.0,47,0.00,,,0.00,weatherlink.com 1.10,2013-02-08 05:44:00,
2013-02-07 22:59:00,14.9,0.0,30.14,West,281,0.0,3.0,51,0.00,,,0.00,weatherlink.com 1.10,2013-02-08 05:59:00,
2013-02-07 23:14:00,14.3,-1.0,30.14,WNW,284,0.0,1.0,51,0.00,,,0.00,weatherlink.com 1.10,2013-02-08 06:14:00,
2013-02-07 23:29:00,14.5,-1.0,30.14,West,276,0.0,0.0,51,0.00,,,0.00,weatherlink.com 1.10,2013-02-08 06:29:00,
2013-02-07 23:45:00,14.1,-1.0,30.15,West,276,0.0,1.0,51,0.00,,,0.00,weatherlink.com 1.10,2013-02-08 06:45:00,